sensor_id;sensor_type;location;lat;lon;timestamp;P1;durP1;ratioP1;P2;durP2;ratioP2
8399;SDS011;4237;47.030;15.396;2022-11-20T00:01:37;27.40;;;16.90;;
8399;SDS011;4237;47.030;15.396;2022-11-20T00:04:05;29.77;;;17.80;;
8399;SDS011;4237;47.030;15.396;2022-11-20T00:06:34;32.13;;;17.87;;
8399;SDS011;4237;47.030;15.396;2022-11-20T00:09:02;30.33;;;18.03;;
8399;SDS011;4237;47.030;15.396;2022-11-20T00:11:32;30.57;;;17.70;;
8399;SDS011;4237;47.030;15.396;2022-11-20T00:14:01;30.03;;;17.43;;
8399;SDS011;4237;47.030;15.396;2022-11-20T00:16:30;30.47;;;18.00;;
8399;SDS011;4237;47.030;15.396;2022-11-20T00:19:00;28.07;;;18.10;;
8399;SDS011;4237;47.030;15.396;2022-11-20T00:21:29;29.87;;;17.70;;
8399;SDS011;4237;47.030;15.396;2022-11-20T00:23:58;33.07;;;19.67;;
8399;SDS011;4237;47.030;15.396;2022-11-20T00:26:26;28.10;;;17.13;;
8399;SDS011;4237;47.030;15.396;2022-11-20T00:28:58;24.70;;;15.83;;
8399;SDS011;4237;47.030;15.396;2022-11-20T00:31:28;23.80;;;14.83;;
8399;SDS011;4237;47.030;15.396;2022-11-20T00:33:59;24.60;;;14.30;;
8399;SDS011;4237;47.030;15.396;2022-11-20T00:36:28;23.27;;;14.10;;
8399;SDS011;4237;47.030;15.396;2022-11-20T00:38:59;18.97;;;12.60;;
8399;SDS011;4237;47.030;15.396;2022-11-20T00:41:28;20.80;;;13.57;;
8399;SDS011;4237;47.030;15.396;2022-11-20T00:43:56;23.03;;;13.40;;
8399;SDS011;4237;47.030;15.396;2022-11-20T00:46:26;20.97;;;12.87;;
8399;SDS011;4237;47.030;15.396;2022-11-20T00:48:55;17.53;;;11.27;;
8399;SDS011;4237;47.030;15.396;2022-11-20T00:51:25;17.97;;;12.17;;
8399;SDS011;4237;47.030;15.396;2022-11-20T00:53:56;17.67;;;12.43;;
8399;SDS011;4237;47.030;15.396;2022-11-20T00:56:26;17.67;;;11.67;;
8399;SDS011;4237;47.030;15.396;2022-11-20T00:58:58;19.43;;;11.43;;
8399;SDS011;4237;47.030;15.396;2022-11-20T01:01:27;15.50;;;10.70;;
8399;SDS011;4237;47.030;15.396;2022-11-20T01:03:57;17.33;;;10.97;;
8399;SDS011;4237;47.030;15.396;2022-11-20T01:06:31;16.50;;;11.70;;
8399;SDS011;4237;47.030;15.396;2022-11-20T01:09:02;21.07;;;13.97;;
8399;SDS011;4237;47.030;15.396;2022-11-20T01:11:34;17.53;;;11.70;;
8399;SDS011;4237;47.030;15.396;2022-11-20T01:14:06;18.10;;;11.70;;
8399;SDS011;4237;47.030;15.396;2022-11-20T01:16:37;17.10;;;11.63;;
8399;SDS011;4237;47.030;15.396;2022-11-20T01:19:09;16.60;;;11.50;;
8399;SDS011;4237;47.030;15.396;2022-11-20T01:21:40;17.07;;;11.37;;
8399;SDS011;4237;47.030;15.396;2022-11-20T01:24:13;15.67;;;10.50;;
8399;SDS011;4237;47.030;15.396;2022-11-20T01:26:44;18.43;;;11.47;;
8399;SDS011;4237;47.030;15.396;2022-11-20T01:29:16;18.07;;;12.13;;
8399;SDS011;4237;47.030;15.396;2022-11-20T01:31:46;16.83;;;11.40;;
8399;SDS011;4237;47.030;15.396;2022-11-20T01:34:16;16.00;;;10.80;;
8399;SDS011;4237;47.030;15.396;2022-11-20T01:36:49;18.83;;;11.87;;
8399;SDS011;4237;47.030;15.396;2022-11-20T01:39:23;16.40;;;10.83;;
8399;SDS011;4237;47.030;15.396;2022-11-20T01:41:54;19.37;;;11.93;;
8399;SDS011;4237;47.030;15.396;2022-11-20T01:44:47;18.77;;;11.73;;
8399;SDS011;4237;47.030;15.396;2022-11-20T01:47:35;17.23;;;11.23;;
8399;SDS011;4237;47.030;15.396;2022-11-20T01:55:17;20.50;;;13.17;;
8399;SDS011;4237;47.030;15.396;2022-11-20T01:57:46;19.50;;;12.87;;
8399;SDS011;4237;47.030;15.396;2022-11-20T02:00:18;20.70;;;13.20;;
8399;SDS011;4237;47.030;15.396;2022-11-20T02:02:50;19.30;;;12.60;;
8399;SDS011;4237;47.030;15.396;2022-11-20T02:08:09;19.33;;;13.73;;
8399;SDS011;4237;47.030;15.396;2022-11-20T02:10:38;21.67;;;14.30;;
8399;SDS011;4237;47.030;15.396;2022-11-20T02:13:07;18.70;;;13.47;;
8399;SDS011;4237;47.030;15.396;2022-11-20T02:15:54;19.70;;;13.40;;
8399;SDS011;4237;47.030;15.396;2022-11-20T02:18:23;21.90;;;13.17;;
8399;SDS011;4237;47.030;15.396;2022-11-20T02:21:01;17.07;;;11.47;;
8399;SDS011;4237;47.030;15.396;2022-11-20T02:23:28;17.83;;;12.07;;
8399;SDS011;4237;47.030;15.396;2022-11-20T02:25:58;19.83;;;12.90;;
8399;SDS011;4237;47.030;15.396;2022-11-20T02:28:30;16.97;;;11.53;;
8399;SDS011;4237;47.030;15.396;2022-11-20T02:30:59;17.43;;;11.27;;
8399;SDS011;4237;47.030;15.396;2022-11-20T02:33:28;16.23;;;11.10;;
8399;SDS011;4237;47.030;15.396;2022-11-20T02:35:57;17.03;;;11.07;;
8399;SDS011;4237;47.030;15.396;2022-11-20T02:38:25;16.33;;;10.87;;
8399;SDS011;4237;47.030;15.396;2022-11-20T02:40:54;17.40;;;10.57;;
8399;SDS011;4237;47.030;15.396;2022-11-20T02:43:23;16.17;;;10.97;;
8399;SDS011;4237;47.030;15.396;2022-11-20T02:45:51;16.87;;;10.97;;
8399;SDS011;4237;47.030;15.396;2022-11-20T02:48:20;17.40;;;10.70;;
8399;SDS011;4237;47.030;15.396;2022-11-20T02:50:48;15.90;;;10.93;;
8399;SDS011;4237;47.030;15.396;2022-11-20T02:53:17;17.10;;;10.67;;
8399;SDS011;4237;47.030;15.396;2022-11-20T02:55:46;15.50;;;10.20;;
8399;SDS011;4237;47.030;15.396;2022-11-20T02:58:14;15.83;;;10.50;;
8399;SDS011;4237;47.030;15.396;2022-11-20T03:00:43;15.53;;;10.17;;
8399;SDS011;4237;47.030;15.396;2022-11-20T03:03:12;15.23;;;9.87;;
8399;SDS011;4237;47.030;15.396;2022-11-20T03:05:40;14.87;;;9.93;;
8399;SDS011;4237;47.030;15.396;2022-11-20T03:08:09;14.43;;;9.93;;
8399;SDS011;4237;47.030;15.396;2022-11-20T03:10:37;15.07;;;10.23;;
8399;SDS011;4237;47.030;15.396;2022-11-20T03:13:06;16.17;;;9.47;;
8399;SDS011;4237;47.030;15.396;2022-11-20T03:15:35;14.50;;;9.77;;
8399;SDS011;4237;47.030;15.396;2022-11-20T03:18:04;17.63;;;10.20;;
8399;SDS011;4237;47.030;15.396;2022-11-20T03:20:33;15.83;;;9.87;;
8399;SDS011;4237;47.030;15.396;2022-11-20T03:23:02;15.67;;;9.47;;
8399;SDS011;4237;47.030;15.396;2022-11-20T03:25:32;16.63;;;8.40;;
8399;SDS011;4237;47.030;15.396;2022-11-20T03:28:00;12.90;;;8.43;;
8399;SDS011;4237;47.030;15.396;2022-11-20T03:30:29;12.20;;;8.60;;
8399;SDS011;4237;47.030;15.396;2022-11-20T03:32:57;14.13;;;8.70;;
8399;SDS011;4237;47.030;15.396;2022-11-20T03:35:27;11.87;;;8.30;;
8399;SDS011;4237;47.030;15.396;2022-11-20T03:37:55;13.27;;;8.50;;
8399;SDS011;4237;47.030;15.396;2022-11-20T03:40:25;11.83;;;8.33;;
8399;SDS011;4237;47.030;15.396;2022-11-20T03:42:54;12.90;;;8.00;;
8399;SDS011;4237;47.030;15.396;2022-11-20T03:45:22;14.60;;;8.97;;
8399;SDS011;4237;47.030;15.396;2022-11-20T03:47:51;12.60;;;8.37;;
8399;SDS011;4237;47.030;15.396;2022-11-20T03:50:20;11.83;;;8.40;;
8399;SDS011;4237;47.030;15.396;2022-11-20T03:52:49;14.33;;;8.20;;
8399;SDS011;4237;47.030;15.396;2022-11-20T03:55:18;11.80;;;7.50;;
8399;SDS011;4237;47.030;15.396;2022-11-20T03:57:46;10.70;;;7.70;;
8399;SDS011;4237;47.030;15.396;2022-11-20T04:00:15;11.63;;;7.40;;
8399;SDS011;4237;47.030;15.396;2022-11-20T04:02:43;11.93;;;7.57;;
8399;SDS011;4237;47.030;15.396;2022-11-20T04:05:12;11.90;;;7.53;;
8399;SDS011;4237;47.030;15.396;2022-11-20T04:07:40;10.57;;;7.27;;
8399;SDS011;4237;47.030;15.396;2022-11-20T04:10:09;13.67;;;8.63;;
8399;SDS011;4237;47.030;15.396;2022-11-20T04:12:38;13.27;;;8.07;;
8399;SDS011;4237;47.030;15.396;2022-11-20T04:15:06;12.57;;;8.40;;
8399;SDS011;4237;47.030;15.396;2022-11-20T04:17:36;12.70;;;7.90;;
8399;SDS011;4237;47.030;15.396;2022-11-20T04:20:05;12.40;;;8.03;;
8399;SDS011;4237;47.030;15.396;2022-11-20T04:22:34;12.57;;;8.17;;
8399;SDS011;4237;47.030;15.396;2022-11-20T04:25:03;13.57;;;8.53;;
8399;SDS011;4237;47.030;15.396;2022-11-20T04:27:32;11.47;;;7.43;;
8399;SDS011;4237;47.030;15.396;2022-11-20T04:30:00;11.90;;;8.17;;
8399;SDS011;4237;47.030;15.396;2022-11-20T04:32:29;16.23;;;9.47;;
8399;SDS011;4237;47.030;15.396;2022-11-20T04:34:58;11.67;;;7.83;;
8399;SDS011;4237;47.030;15.396;2022-11-20T04:37:26;11.57;;;7.93;;
8399;SDS011;4237;47.030;15.396;2022-11-20T04:39:55;15.63;;;9.47;;
8399;SDS011;4237;47.030;15.396;2022-11-20T04:42:23;13.70;;;8.93;;
8399;SDS011;4237;47.030;15.396;2022-11-20T04:44:57;13.70;;;8.70;;
8399;SDS011;4237;47.030;15.396;2022-11-20T04:47:26;13.93;;;8.23;;
8399;SDS011;4237;47.030;15.396;2022-11-20T04:49:54;16.33;;;9.30;;
8399;SDS011;4237;47.030;15.396;2022-11-20T04:52:23;12.43;;;8.60;;
8399;SDS011;4237;47.030;15.396;2022-11-20T04:54:51;14.50;;;9.37;;
8399;SDS011;4237;47.030;15.396;2022-11-20T04:57:20;16.70;;;9.43;;
8399;SDS011;4237;47.030;15.396;2022-11-20T04:59:49;17.27;;;10.37;;
8399;SDS011;4237;47.030;15.396;2022-11-20T05:02:17;14.13;;;8.93;;
8399;SDS011;4237;47.030;15.396;2022-11-20T05:04:46;14.20;;;8.83;;
8399;SDS011;4237;47.030;15.396;2022-11-20T05:07:15;14.93;;;9.40;;
8399;SDS011;4237;47.030;15.396;2022-11-20T05:09:44;13.73;;;8.53;;
8399;SDS011;4237;47.030;15.396;2022-11-20T05:12:12;12.63;;;8.30;;
8399;SDS011;4237;47.030;15.396;2022-11-20T05:14:41;11.83;;;7.67;;
8399;SDS011;4237;47.030;15.396;2022-11-20T05:17:10;10.23;;;7.77;;
8399;SDS011;4237;47.030;15.396;2022-11-20T05:19:39;12.57;;;7.80;;
8399;SDS011;4237;47.030;15.396;2022-11-20T05:22:07;10.70;;;7.97;;
8399;SDS011;4237;47.030;15.396;2022-11-20T05:24:36;13.10;;;8.53;;
8399;SDS011;4237;47.030;15.396;2022-11-20T05:27:05;11.50;;;7.53;;
8399;SDS011;4237;47.030;15.396;2022-11-20T05:29:33;14.17;;;8.07;;
8399;SDS011;4237;47.030;15.396;2022-11-20T05:32:02;12.67;;;8.47;;
8399;SDS011;4237;47.030;15.396;2022-11-20T05:34:32;15.80;;;10.27;;
8399;SDS011;4237;47.030;15.396;2022-11-20T05:37:01;19.43;;;12.53;;
8399;SDS011;4237;47.030;15.396;2022-11-20T05:39:30;17.70;;;11.57;;
8399;SDS011;4237;47.030;15.396;2022-11-20T05:41:59;18.10;;;11.17;;
8399;SDS011;4237;47.030;15.396;2022-11-20T05:44:45;16.57;;;10.40;;
8399;SDS011;4237;47.030;15.396;2022-11-20T05:47:14;14.77;;;9.77;;
8399;SDS011;4237;47.030;15.396;2022-11-20T05:49:43;14.90;;;9.63;;
8399;SDS011;4237;47.030;15.396;2022-11-20T05:52:11;13.87;;;9.07;;
8399;SDS011;4237;47.030;15.396;2022-11-20T05:54:40;15.20;;;9.87;;
8399;SDS011;4237;47.030;15.396;2022-11-20T05:57:08;15.27;;;9.37;;
8399;SDS011;4237;47.030;15.396;2022-11-20T05:59:37;16.40;;;10.50;;
8399;SDS011;4237;47.030;15.396;2022-11-20T06:02:05;16.20;;;10.93;;
8399;SDS011;4237;47.030;15.396;2022-11-20T06:04:34;15.50;;;10.70;;
8399;SDS011;4237;47.030;15.396;2022-11-20T06:07:04;15.50;;;10.63;;
8399;SDS011;4237;47.030;15.396;2022-11-20T06:09:33;17.27;;;10.50;;
8399;SDS011;4237;47.030;15.396;2022-11-20T06:12:02;17.93;;;10.80;;
8399;SDS011;4237;47.030;15.396;2022-11-20T06:14:31;12.67;;;9.37;;
8399;SDS011;4237;47.030;15.396;2022-11-20T06:17:00;13.33;;;9.20;;
8399;SDS011;4237;47.030;15.396;2022-11-20T06:19:29;13.77;;;9.87;;
8399;SDS011;4237;47.030;15.396;2022-11-20T06:21:57;13.67;;;9.47;;
8399;SDS011;4237;47.030;15.396;2022-11-20T06:24:26;17.33;;;10.50;;
8399;SDS011;4237;47.030;15.396;2022-11-20T06:26:54;16.70;;;10.13;;
8399;SDS011;4237;47.030;15.396;2022-11-20T06:29:23;16.00;;;11.03;;
8399;SDS011;4237;47.030;15.396;2022-11-20T06:31:51;15.47;;;10.60;;
8399;SDS011;4237;47.030;15.396;2022-11-20T06:34:20;18.00;;;11.93;;
8399;SDS011;4237;47.030;15.396;2022-11-20T06:36:48;15.70;;;11.07;;
8399;SDS011;4237;47.030;15.396;2022-11-20T06:39:17;18.90;;;11.47;;
8399;SDS011;4237;47.030;15.396;2022-11-20T06:41:46;16.77;;;10.80;;
8399;SDS011;4237;47.030;15.396;2022-11-20T06:44:14;13.90;;;10.33;;
8399;SDS011;4237;47.030;15.396;2022-11-20T06:46:43;16.80;;;10.00;;
8399;SDS011;4237;47.030;15.396;2022-11-20T06:49:11;16.90;;;10.80;;
8399;SDS011;4237;47.030;15.396;2022-11-20T06:51:40;14.47;;;9.87;;
8399;SDS011;4237;47.030;15.396;2022-11-20T06:54:08;18.20;;;11.30;;
8399;SDS011;4237;47.030;15.396;2022-11-20T06:56:37;14.77;;;11.17;;
8399;SDS011;4237;47.030;15.396;2022-11-20T06:59:06;15.33;;;10.80;;
8399;SDS011;4237;47.030;15.396;2022-11-20T07:01:35;16.57;;;10.27;;
8399;SDS011;4237;47.030;15.396;2022-11-20T07:04:03;16.67;;;10.37;;
8399;SDS011;4237;47.030;15.396;2022-11-20T07:06:32;15.87;;;9.93;;
8399;SDS011;4237;47.030;15.396;2022-11-20T07:09:01;13.83;;;9.80;;
8399;SDS011;4237;47.030;15.396;2022-11-20T07:11:30;19.13;;;11.97;;
8399;SDS011;4237;47.030;15.396;2022-11-20T07:13:58;18.63;;;13.30;;
8399;SDS011;4237;47.030;15.396;2022-11-20T07:16:27;17.23;;;12.30;;
8399;SDS011;4237;47.030;15.396;2022-11-20T07:18:55;15.43;;;11.20;;
8399;SDS011;4237;47.030;15.396;2022-11-20T07:21:24;15.83;;;10.77;;
8399;SDS011;4237;47.030;15.396;2022-11-20T07:23:52;13.10;;;9.50;;
8399;SDS011;4237;47.030;15.396;2022-11-20T07:26:22;13.53;;;9.90;;
8399;SDS011;4237;47.030;15.396;2022-11-20T07:28:50;13.87;;;9.73;;
8399;SDS011;4237;47.030;15.396;2022-11-20T07:31:19;13.37;;;9.90;;
8399;SDS011;4237;47.030;15.396;2022-11-20T07:33:47;20.43;;;14.13;;
8399;SDS011;4237;47.030;15.396;2022-11-20T07:36:16;16.07;;;11.30;;
8399;SDS011;4237;47.030;15.396;2022-11-20T07:38:45;14.60;;;11.50;;
8399;SDS011;4237;47.030;15.396;2022-11-20T07:41:14;14.73;;;11.47;;
8399;SDS011;4237;47.030;15.396;2022-11-20T07:43:43;16.73;;;12.27;;
8399;SDS011;4237;47.030;15.396;2022-11-20T07:46:11;14.90;;;10.85;;
8399;SDS011;4237;47.030;15.396;2022-11-20T07:48:40;15.13;;;10.43;;
8399;SDS011;4237;47.030;15.396;2022-11-20T07:51:08;15.37;;;10.80;;
8399;SDS011;4237;47.030;15.396;2022-11-20T07:53:37;15.17;;;11.07;;
8399;SDS011;4237;47.030;15.396;2022-11-20T07:56:06;16.60;;;12.10;;
8399;SDS011;4237;47.030;15.396;2022-11-20T07:58:34;14.53;;;11.73;;
8399;SDS011;4237;47.030;15.396;2022-11-20T08:01:04;14.43;;;11.33;;
8399;SDS011;4237;47.030;15.396;2022-11-20T08:03:35;12.80;;;10.33;;
8399;SDS011;4237;47.030;15.396;2022-11-20T08:06:07;16.20;;;10.67;;
8399;SDS011;4237;47.030;15.396;2022-11-20T08:08:36;14.53;;;10.90;;
8399;SDS011;4237;47.030;15.396;2022-11-20T08:11:06;14.33;;;11.07;;
8399;SDS011;4237;47.030;15.396;2022-11-20T08:13:39;16.13;;;10.60;;
8399;SDS011;4237;47.030;15.396;2022-11-20T08:16:26;14.07;;;10.63;;
8399;SDS011;4237;47.030;15.396;2022-11-20T08:18:54;14.67;;;11.17;;
8399;SDS011;4237;47.030;15.396;2022-11-20T08:23:51;13.63;;;9.93;;
8399;SDS011;4237;47.030;15.396;2022-11-20T08:26:20;13.50;;;9.70;;
8399;SDS011;4237;47.030;15.396;2022-11-20T08:28:53;15.23;;;10.63;;
8399;SDS011;4237;47.030;15.396;2022-11-20T08:31:24;15.43;;;11.20;;
8399;SDS011;4237;47.030;15.396;2022-11-20T08:33:54;17.93;;;11.87;;
8399;SDS011;4237;47.030;15.396;2022-11-20T08:36:23;15.07;;;11.10;;
8399;SDS011;4237;47.030;15.396;2022-11-20T08:38:53;17.03;;;11.23;;
8399;SDS011;4237;47.030;15.396;2022-11-20T08:41:23;16.07;;;11.87;;
8399;SDS011;4237;47.030;15.396;2022-11-20T08:43:54;16.07;;;11.53;;
8399;SDS011;4237;47.030;15.396;2022-11-20T08:46:26;14.17;;;10.90;;
8399;SDS011;4237;47.030;15.396;2022-11-20T08:48:56;16.60;;;11.13;;
8399;SDS011;4237;47.030;15.396;2022-11-20T08:51:24;16.07;;;11.47;;
8399;SDS011;4237;47.030;15.396;2022-11-20T08:53:53;12.97;;;9.93;;
8399;SDS011;4237;47.030;15.396;2022-11-20T08:56:22;14.50;;;11.10;;
8399;SDS011;4237;47.030;15.396;2022-11-20T08:58:51;13.67;;;10.13;;
8399;SDS011;4237;47.030;15.396;2022-11-20T09:01:20;15.40;;;11.43;;
8399;SDS011;4237;47.030;15.396;2022-11-20T09:03:50;14.13;;;10.53;;
8399;SDS011;4237;47.030;15.396;2022-11-20T09:06:19;13.87;;;10.80;;
8399;SDS011;4237;47.030;15.396;2022-11-20T09:08:51;13.57;;;10.47;;
8399;SDS011;4237;47.030;15.396;2022-11-20T09:11:21;14.60;;;10.83;;
8399;SDS011;4237;47.030;15.396;2022-11-20T09:13:50;14.57;;;10.93;;
8399;SDS011;4237;47.030;15.396;2022-11-20T09:16:18;16.00;;;12.27;;
8399;SDS011;4237;47.030;15.396;2022-11-20T09:21:35;18.60;;;13.27;;
8399;SDS011;4237;47.030;15.396;2022-11-20T09:24:04;15.75;;;11.30;;
8399;SDS011;4237;47.030;15.396;2022-11-20T09:26:33;16.53;;;12.20;;
8399;SDS011;4237;47.030;15.396;2022-11-20T09:29:02;20.47;;;12.83;;
8399;SDS011;4237;47.030;15.396;2022-11-20T09:31:30;17.53;;;12.63;;
8399;SDS011;4237;47.030;15.396;2022-11-20T09:33:59;15.07;;;12.23;;
8399;SDS011;4237;47.030;15.396;2022-11-20T09:36:28;15.77;;;12.20;;
8399;SDS011;4237;47.030;15.396;2022-11-20T09:38:56;18.13;;;11.80;;
8399;SDS011;4237;47.030;15.396;2022-11-20T09:41:32;17.47;;;12.87;;
8399;SDS011;4237;47.030;15.396;2022-11-20T09:44:06;19.20;;;13.20;;
8399;SDS011;4237;47.030;15.396;2022-11-20T09:54:37;11.37;;;9.33;;
8399;SDS011;4237;47.030;15.396;2022-11-20T09:57:18;12.90;;;10.27;;
8399;SDS011;4237;47.030;15.396;2022-11-20T09:59:59;19.47;;;14.87;;
8399;SDS011;4237;47.030;15.396;2022-11-20T10:02:30;16.67;;;13.80;;
8399;SDS011;4237;47.030;15.396;2022-11-20T10:07:49;13.70;;;9.10;;
8399;SDS011;4237;47.030;15.396;2022-11-20T10:21:08;9.60;;;7.90;;
8399;SDS011;4237;47.030;15.396;2022-11-20T10:26:59;11.07;;;8.17;;
8399;SDS011;4237;47.030;15.396;2022-11-20T10:29:34;9.30;;;8.30;;
8399;SDS011;4237;47.030;15.396;2022-11-20T10:32:04;10.23;;;8.67;;
8399;SDS011;4237;47.030;15.396;2022-11-20T10:34:43;10.30;;;8.67;;
8399;SDS011;4237;47.030;15.396;2022-11-20T10:42:37;14.73;;;11.70;;
8399;SDS011;4237;47.030;15.396;2022-11-20T10:48:04;11.83;;;9.87;;
8399;SDS011;4237;47.030;15.396;2022-11-20T10:50:26;11.80;;;10.27;;
8399;SDS011;4237;47.030;15.396;2022-11-20T10:53:03;19.73;;;16.00;;
8399;SDS011;4237;47.030;15.396;2022-11-20T10:55:39;15.63;;;11.43;;
8399;SDS011;4237;47.030;15.396;2022-11-20T11:00:32;12.70;;;10.83;;
8399;SDS011;4237;47.030;15.396;2022-11-20T11:03:01;14.97;;;10.70;;
8399;SDS011;4237;47.030;15.396;2022-11-20T11:07:59;15.00;;;11.80;;
8399;SDS011;4237;47.030;15.396;2022-11-20T11:13:24;16.70;;;13.13;;
8399;SDS011;4237;47.030;15.396;2022-11-20T11:15:53;16.33;;;12.93;;
8399;SDS011;4237;47.030;15.396;2022-11-20T11:18:25;17.53;;;13.80;;
8399;SDS011;4237;47.030;15.396;2022-11-20T11:20:54;16.23;;;12.87;;
8399;SDS011;4237;47.030;15.396;2022-11-20T11:23:34;17.30;;;14.37;;
8399;SDS011;4237;47.030;15.396;2022-11-20T11:26:01;17.23;;;13.63;;
8399;SDS011;4237;47.030;15.396;2022-11-20T11:28:29;16.60;;;13.37;;
8399;SDS011;4237;47.030;15.396;2022-11-20T11:30:59;16.00;;;13.50;;
8399;SDS011;4237;47.030;15.396;2022-11-20T11:33:28;18.27;;;14.57;;
8399;SDS011;4237;47.030;15.396;2022-11-20T11:35:58;16.67;;;13.33;;
8399;SDS011;4237;47.030;15.396;2022-11-20T11:38:30;17.10;;;12.53;;
8399;SDS011;4237;47.030;15.396;2022-11-20T11:40:59;13.60;;;10.90;;
8399;SDS011;4237;47.030;15.396;2022-11-20T11:48:41;10.57;;;8.07;;
8399;SDS011;4237;47.030;15.396;2022-11-20T11:51:09;9.43;;;8.33;;
8399;SDS011;4237;47.030;15.396;2022-11-20T11:53:38;9.77;;;8.77;;
8399;SDS011;4237;47.030;15.396;2022-11-20T11:56:10;9.23;;;8.33;;
8399;SDS011;4237;47.030;15.396;2022-11-20T11:58:50;7.40;;;6.70;;
8399;SDS011;4237;47.030;15.396;2022-11-20T12:01:26;8.30;;;6.90;;
8399;SDS011;4237;47.030;15.396;2022-11-20T12:04:04;8.83;;;7.93;;
8399;SDS011;4237;47.030;15.396;2022-11-20T12:06:34;8.47;;;7.67;;
8399;SDS011;4237;47.030;15.396;2022-11-20T12:09:04;9.57;;;8.57;;
8399;SDS011;4237;47.030;15.396;2022-11-20T12:11:35;10.60;;;8.83;;
8399;SDS011;4237;47.030;15.396;2022-11-20T12:14:04;9.00;;;8.03;;
8399;SDS011;4237;47.030;15.396;2022-11-20T12:16:34;8.93;;;7.63;;
8399;SDS011;4237;47.030;15.396;2022-11-20T12:19:02;7.87;;;6.80;;
8399;SDS011;4237;47.030;15.396;2022-11-20T12:24:31;7.40;;;6.13;;
8399;SDS011;4237;47.030;15.396;2022-11-20T12:37:53;11.20;;;6.47;;
8399;SDS011;4237;47.030;15.396;2022-11-20T12:48:47;6.63;;;4.60;;
8399;SDS011;4237;47.030;15.396;2022-11-20T12:53:50;4.90;;;4.40;;
8399;SDS011;4237;47.030;15.396;2022-11-20T12:59:08;4.67;;;4.27;;
8399;SDS011;4237;47.030;15.396;2022-11-20T13:07:09;5.30;;;4.83;;
8399;SDS011;4237;47.030;15.396;2022-11-20T13:09:40;5.63;;;5.10;;
8399;SDS011;4237;47.030;15.396;2022-11-20T13:12:13;5.50;;;4.80;;
8399;SDS011;4237;47.030;15.396;2022-11-20T13:17:41;5.40;;;4.90;;
8399;SDS011;4237;47.030;15.396;2022-11-20T13:20:15;5.33;;;4.83;;
8399;SDS011;4237;47.030;15.396;2022-11-20T13:22:45;7.07;;;4.87;;
8399;SDS011;4237;47.030;15.396;2022-11-20T13:42:27;5.30;;;4.50;;
8399;SDS011;4237;47.030;15.396;2022-11-20T13:54:52;4.50;;;4.10;;
8399;SDS011;4237;47.030;15.396;2022-11-20T14:02:19;6.13;;;4.70;;
8399;SDS011;4237;47.030;15.396;2022-11-20T14:04:49;6.93;;;5.33;;
8399;SDS011;4237;47.030;15.396;2022-11-20T14:07:20;8.10;;;6.60;;
8399;SDS011;4237;47.030;15.396;2022-11-20T14:09:54;9.23;;;8.23;;
8399;SDS011;4237;47.030;15.396;2022-11-20T14:12:22;7.67;;;6.77;;
8399;SDS011;4237;47.030;15.396;2022-11-20T14:14:52;9.30;;;6.73;;
8399;SDS011;4237;47.030;15.396;2022-11-20T14:17:23;8.77;;;6.93;;
8399;SDS011;4237;47.030;15.396;2022-11-20T14:19:52;8.90;;;6.30;;
8399;SDS011;4237;47.030;15.396;2022-11-20T14:22:25;8.10;;;7.10;;
8399;SDS011;4237;47.030;15.396;2022-11-20T14:25:01;8.40;;;6.70;;
8399;SDS011;4237;47.030;15.396;2022-11-20T14:27:32;7.57;;;5.83;;
8399;SDS011;4237;47.030;15.396;2022-11-20T14:30:00;8.33;;;5.67;;
8399;SDS011;4237;47.030;15.396;2022-11-20T14:32:29;6.83;;;4.90;;
8399;SDS011;4237;47.030;15.396;2022-11-20T14:37:26;5.67;;;4.50;;
8399;SDS011;4237;47.030;15.396;2022-11-20T14:39:56;7.60;;;4.27;;
8399;SDS011;4237;47.030;15.396;2022-11-20T14:42:27;4.80;;;4.10;;
8399;SDS011;4237;47.030;15.396;2022-11-20T14:44:56;4.93;;;4.30;;
8399;SDS011;4237;47.030;15.396;2022-11-20T14:47:26;7.23;;;4.87;;
8399;SDS011;4237;47.030;15.396;2022-11-20T14:49:55;9.97;;;5.80;;
8399;SDS011;4237;47.030;15.396;2022-11-20T14:52:24;8.00;;;6.40;;
8399;SDS011;4237;47.030;15.396;2022-11-20T14:54:56;8.80;;;6.63;;
8399;SDS011;4237;47.030;15.396;2022-11-20T14:57:32;9.97;;;6.70;;
8399;SDS011;4237;47.030;15.396;2022-11-20T15:00:19;9.17;;;7.50;;
8399;SDS011;4237;47.030;15.396;2022-11-20T15:02:33;10.27;;;7.13;;
8399;SDS011;4237;47.030;15.396;2022-11-20T15:05:02;10.13;;;6.90;;
8399;SDS011;4237;47.030;15.396;2022-11-20T15:07:35;12.30;;;7.33;;
8399;SDS011;4237;47.030;15.396;2022-11-20T15:10:09;15.63;;;7.60;;
8399;SDS011;4237;47.030;15.396;2022-11-20T15:12:40;12.93;;;7.47;;
8399;SDS011;4237;47.030;15.396;2022-11-20T15:15:10;7.30;;;6.50;;
8399;SDS011;4237;47.030;15.396;2022-11-20T15:17:58;12.63;;;9.30;;
8399;SDS011;4237;47.030;15.396;2022-11-20T15:20:30;16.43;;;12.67;;
8399;SDS011;4237;47.030;15.396;2022-11-20T15:22:58;15.33;;;11.87;;
8399;SDS011;4237;47.030;15.396;2022-11-20T15:25:27;17.97;;;12.43;;
8399;SDS011;4237;47.030;15.396;2022-11-20T15:27:56;14.40;;;10.80;;
8399;SDS011;4237;47.030;15.396;2022-11-20T15:30:25;14.60;;;11.63;;
8399;SDS011;4237;47.030;15.396;2022-11-20T15:32:55;15.43;;;11.17;;
8399;SDS011;4237;47.030;15.396;2022-11-20T15:35:23;17.40;;;11.53;;
8399;SDS011;4237;47.030;15.396;2022-11-20T15:37:52;21.23;;;14.67;;
8399;SDS011;4237;47.030;15.396;2022-11-20T15:40:20;28.23;;;15.40;;
8399;SDS011;4237;47.030;15.396;2022-11-20T15:42:48;30.93;;;17.90;;
8399;SDS011;4237;47.030;15.396;2022-11-20T15:45:41;22.63;;;14.83;;
8399;SDS011;4237;47.030;15.396;2022-11-20T15:48:11;22.47;;;14.83;;
8399;SDS011;4237;47.030;15.396;2022-11-20T15:50:47;18.17;;;12.60;;
8399;SDS011;4237;47.030;15.396;2022-11-20T15:53:13;21.00;;;13.90;;
8399;SDS011;4237;47.030;15.396;2022-11-20T15:55:42;27.43;;;17.27;;
8399;SDS011;4237;47.030;15.396;2022-11-20T15:58:11;26.67;;;17.03;;
8399;SDS011;4237;47.030;15.396;2022-11-20T16:00:40;19.87;;;14.00;;
8399;SDS011;4237;47.030;15.396;2022-11-20T16:03:10;18.00;;;12.87;;
8399;SDS011;4237;47.030;15.396;2022-11-20T16:05:39;30.47;;;19.13;;
8399;SDS011;4237;47.030;15.396;2022-11-20T16:08:07;26.65;;;17.10;;
8399;SDS011;4237;47.030;15.396;2022-11-20T16:10:36;24.75;;;16.15;;
8399;SDS011;4237;47.030;15.396;2022-11-20T16:13:10;24.15;;;16.05;;
8399;SDS011;4237;47.030;15.396;2022-11-20T16:15:55;21.30;;;15.40;;
8399;SDS011;4237;47.030;15.396;2022-11-20T16:18:23;24.27;;;15.17;;
8399;SDS011;4237;47.030;15.396;2022-11-20T16:20:52;30.03;;;16.53;;
8399;SDS011;4237;47.030;15.396;2022-11-20T16:23:21;42.90;;;20.13;;
8399;SDS011;4237;47.030;15.396;2022-11-20T16:25:50;36.40;;;18.90;;
8399;SDS011;4237;47.030;15.396;2022-11-20T16:28:19;29.63;;;18.90;;
8399;SDS011;4237;47.030;15.396;2022-11-20T16:30:48;38.60;;;21.50;;
8399;SDS011;4237;47.030;15.396;2022-11-20T16:33:17;40.40;;;21.17;;
8399;SDS011;4237;47.030;15.396;2022-11-20T16:35:46;28.10;;;17.97;;
8399;SDS011;4237;47.030;15.396;2022-11-20T16:38:15;28.67;;;17.70;;
8399;SDS011;4237;47.030;15.396;2022-11-20T16:40:44;19.37;;;13.53;;
8399;SDS011;4237;47.030;15.396;2022-11-20T16:43:13;20.80;;;15.23;;
8399;SDS011;4237;47.030;15.396;2022-11-20T16:45:42;15.77;;;13.03;;
8399;SDS011;4237;47.030;15.396;2022-11-20T16:48:13;19.57;;;14.57;;
8399;SDS011;4237;47.030;15.396;2022-11-20T16:50:49;16.67;;;12.00;;
8399;SDS011;4237;47.030;15.396;2022-11-20T16:53:19;14.43;;;11.10;;
8399;SDS011;4237;47.030;15.396;2022-11-20T16:55:50;13.63;;;11.07;;
8399;SDS011;4237;47.030;15.396;2022-11-20T16:58:19;13.90;;;11.70;;
8399;SDS011;4237;47.030;15.396;2022-11-20T17:00:47;18.30;;;13.03;;
8399;SDS011;4237;47.030;15.396;2022-11-20T17:03:16;18.80;;;13.37;;
8399;SDS011;4237;47.030;15.396;2022-11-20T17:05:44;15.00;;;12.23;;
8399;SDS011;4237;47.030;15.396;2022-11-20T17:08:13;18.73;;;13.30;;